createdAt,value
2018-05-10T00:00:05.404Z,6.50
2018-05-10T00:02:35.435Z,7.63
2018-05-10T00:05:04.738Z,4.80
2018-05-10T00:07:34.022Z,7.30
2018-05-10T00:10:04.122Z,5.27
2018-05-10T00:12:33.390Z,5.10
2018-05-10T00:15:02.704Z,4.53
2018-05-10T00:17:32.062Z,4.57
2018-05-10T00:20:02.185Z,4.50
2018-05-10T00:22:31.487Z,5.60
2018-05-10T00:25:01.346Z,5.30
2018-05-10T00:27:30.649Z,8.73
2018-05-10T00:29:59.925Z,5.20
2018-05-10T00:32:29.204Z,4.23
2018-05-10T00:34:58.489Z,7.57
2018-05-10T00:37:29.149Z,4.70
2018-05-10T00:39:59.150Z,7.00
2018-05-10T00:42:28.419Z,6.57
2018-05-10T00:44:57.743Z,4.53
2018-05-10T00:47:27.771Z,6.93
2018-05-10T00:49:57.063Z,15.20
2018-05-10T00:52:27.085Z,4.57
2018-05-10T00:54:58.844Z,5.67
2018-05-10T00:57:28.114Z,4.07
2018-05-10T00:59:58.171Z,4.43
2018-05-10T01:02:27.569Z,5.93
2018-05-10T01:04:57.011Z,5.13
2018-05-10T01:07:26.948Z,4.73
2018-05-10T01:09:56.228Z,5.37
2018-05-10T01:12:25.480Z,5.23
2018-05-10T01:14:54.844Z,4.07
2018-05-10T01:17:24.128Z,4.67
2018-05-10T01:19:53.388Z,6.07
2018-05-10T01:22:22.673Z,6.23
2018-05-10T01:24:52.705Z,4.40
2018-05-10T01:27:22.088Z,4.70
2018-05-10T01:29:51.362Z,3.67
2018-05-10T01:32:20.613Z,4.20
2018-05-10T01:37:59.562Z,4.57
2018-05-10T01:40:28.823Z,8.13
2018-05-10T01:42:58.863Z,5.93
2018-05-10T01:45:28.309Z,3.77
2018-05-10T01:47:57.711Z,8.40
2018-05-10T01:50:26.946Z,3.67
2018-05-10T01:52:57.006Z,12.43
2018-05-10T01:55:26.241Z,3.80
2018-05-10T01:57:55.516Z,8.13
2018-05-10T02:00:24.805Z,5.93
2018-05-10T02:02:54.276Z,5.30
2018-05-10T02:05:24.361Z,4.47
2018-05-10T02:07:53.636Z,3.63
2018-05-10T02:10:23.928Z,12.40
2018-05-10T02:12:53.973Z,3.90
2018-05-10T02:15:23.242Z,10.83
2018-05-10T02:17:53.290Z,4.03
2018-05-10T02:20:22.586Z,3.97
2018-05-10T02:22:51.949Z,8.23
2018-05-10T02:25:21.985Z,3.57
2018-05-10T02:27:51.253Z,4.10
2018-05-10T02:30:20.537Z,3.67
2018-05-10T02:32:49.808Z,4.20
2018-05-10T02:35:19.082Z,10.77
2018-05-10T02:37:48.357Z,4.80
2018-05-10T02:40:17.611Z,5.30
2018-05-10T02:42:46.973Z,3.87
2018-05-10T02:45:17.055Z,3.80
2018-05-10T02:47:46.344Z,5.63
2018-05-10T02:50:15.601Z,3.37
2018-05-10T02:52:45.637Z,3.13
2018-05-10T02:55:14.894Z,2.83
2018-05-10T02:57:44.945Z,3.77
2018-05-10T03:00:14.201Z,4.10
2018-05-10T03:02:43.483Z,3.70
2018-05-10T03:05:13.741Z,5.27
2018-05-10T03:07:43.762Z,6.10
2018-05-10T03:10:13.035Z,5.50
2018-05-10T03:12:42.328Z,7.40
2018-05-10T03:15:11.617Z,7.63
2018-05-10T03:17:40.888Z,7.30
2018-05-10T03:20:10.172Z,18.70
2018-05-10T03:22:40.219Z,13.30
2018-05-10T03:25:09.493Z,7.77
2018-05-10T03:27:39.578Z,14.77
2018-05-10T03:30:08.832Z,10.87
2018-05-10T03:32:38.122Z,9.30
2018-05-10T03:35:08.196Z,10.37
2018-05-10T03:37:37.483Z,12.93
2018-05-10T03:40:06.852Z,29.20
2018-05-10T03:42:36.122Z,20.67
2018-05-10T03:45:06.158Z,19.37
2018-05-10T03:47:36.172Z,8.93
2018-05-10T03:50:06.225Z,7.93
2018-05-10T03:52:35.469Z,20.47
2018-05-10T03:55:05.493Z,22.43
2018-05-10T03:57:35.574Z,22.60
2018-05-10T04:00:04.845Z,31.43
2018-05-10T04:06:13.026Z,43.30
2018-05-10T04:08:59.862Z,47.93
2018-05-10T04:11:29.903Z,41.90
2018-05-10T04:13:59.198Z,42.17
2018-05-10T04:16:28.534Z,41.57
2018-05-10T04:18:57.799Z,41.93
2018-05-10T04:21:27.058Z,37.30
2018-05-10T04:23:57.273Z,38.83
2018-05-10T04:26:26.569Z,45.73
2018-05-10T04:28:55.859Z,42.20
2018-05-10T04:31:25.192Z,39.10
2018-05-10T04:33:55.327Z,48.27
2018-05-10T04:36:25.386Z,50.07
2018-05-10T04:38:54.677Z,39.27
2018-05-10T04:41:23.978Z,56.33
2018-05-10T04:43:53.248Z,50.93
2018-05-10T04:46:23.274Z,53.57
2018-05-10T04:48:52.585Z,59.30
2018-05-10T04:51:21.899Z,42.10
2018-05-10T04:53:51.196Z,49.60
2018-05-10T04:56:20.473Z,61.70
2018-05-10T04:58:49.777Z,61.00
2018-05-10T05:01:19.085Z,77.67
2018-05-10T05:03:48.362Z,75.57
2018-05-10T05:06:18.442Z,84.47
2018-05-10T05:08:48.692Z,86.27
2018-05-10T05:11:18.685Z,86.63
2018-05-10T05:13:47.931Z,83.03
2018-05-10T05:16:17.233Z,90.20
2018-05-10T05:18:46.569Z,81.63
2018-05-10T05:21:15.876Z,86.13
2018-05-10T05:23:45.741Z,89.17
2018-05-10T05:26:15.028Z,72.00
2018-05-10T05:28:45.100Z,78.80
2018-05-10T05:31:14.366Z,87.93
2018-05-10T05:33:43.699Z,69.90
2018-05-10T05:36:12.979Z,83.13
2018-05-10T05:38:42.308Z,85.80
2018-05-10T05:41:11.693Z,72.20
2018-05-10T05:43:40.864Z,81.47
2018-05-10T05:46:10.193Z,79.10
2018-05-10T05:48:43.270Z,81.00
2018-05-10T05:51:12.541Z,76.97
2018-05-10T05:53:42.581Z,88.07
2018-05-10T05:56:11.842Z,77.93
2018-05-10T05:58:41.923Z,82.40
2018-05-10T06:01:11.210Z,85.23
2018-05-10T06:03:40.536Z,77.40
2018-05-10T06:06:09.796Z,87.63
2018-05-10T06:08:39.115Z,84.10
2018-05-10T06:11:09.118Z,80.63
2018-05-10T06:13:38.387Z,72.90
2018-05-10T06:16:07.684Z,81.90
2018-05-10T06:18:36.967Z,79.10
2018-05-10T06:21:07.762Z,64.27
2018-05-10T06:23:38.262Z,78.60
2018-05-10T06:26:08.306Z,80.93
2018-05-10T06:28:37.569Z,66.77
2018-05-10T06:31:07.662Z,71.97
2018-05-10T06:33:36.997Z,79.23
2018-05-10T06:36:06.260Z,69.50
2018-05-10T06:38:35.542Z,71.67
2018-05-10T06:41:04.808Z,80.83
2018-05-10T06:43:34.063Z,70.50
2018-05-10T06:46:03.323Z,72.37
2018-05-10T06:48:32.614Z,79.80
2018-05-10T06:51:01.875Z,88.80
2018-05-10T06:53:31.190Z,81.77
2018-05-10T06:56:00.457Z,86.97
2018-05-10T06:58:29.765Z,86.27
2018-05-10T07:00:59.061Z,81.33
2018-05-10T07:03:28.366Z,77.53
2018-05-10T07:05:57.709Z,76.73
2018-05-10T07:08:26.961Z,73.47
2018-05-10T07:10:56.230Z,73.67
2018-05-10T07:13:25.507Z,77.83
2018-05-10T07:15:55.541Z,76.40
2018-05-10T07:18:24.851Z,64.60
2018-05-10T07:20:54.126Z,87.60
2018-05-10T07:23:23.402Z,77.10
2018-05-10T07:25:55.926Z,73.33
2018-05-10T07:28:25.208Z,70.53
2018-05-10T07:30:54.484Z,71.30
2018-05-10T07:33:24.527Z,72.07
2018-05-10T07:35:53.814Z,68.23
2018-05-10T07:38:23.856Z,73.00
2018-05-10T07:40:53.157Z,73.23
2018-05-10T07:43:22.573Z,62.23
2018-05-10T07:45:51.916Z,59.27
2018-05-10T07:48:21.188Z,70.00
2018-05-10T07:50:50.467Z,72.53
2018-05-10T07:53:19.830Z,68.13
2018-05-10T07:55:49.195Z,56.17
2018-05-10T07:58:18.521Z,74.53
2018-05-10T08:00:47.909Z,65.60
2018-05-10T08:03:17.302Z,58.97
2018-05-10T08:05:46.625Z,62.47
2018-05-10T08:08:15.942Z,60.77
2018-05-10T08:10:46.005Z,57.90
2018-05-10T08:13:15.298Z,62.63
2018-05-10T08:15:44.609Z,56.23
2018-05-10T08:18:13.904Z,64.30
2018-05-10T08:20:43.207Z,59.20
2018-05-10T08:23:12.517Z,51.77
2018-05-10T08:25:41.875Z,43.87
2018-05-10T08:28:11.209Z,52.80
2018-05-10T08:30:40.589Z,46.07
2018-05-10T08:33:09.907Z,42.57
2018-05-10T08:35:39.252Z,44.17
2018-05-10T08:38:08.507Z,58.60
2018-05-10T08:40:37.767Z,50.47
2018-05-10T08:43:07.818Z,50.90
2018-05-10T08:45:37.306Z,42.73
2018-05-10T08:48:06.624Z,55.17
2018-05-10T08:50:35.900Z,46.30
2018-05-10T08:53:05.182Z,53.10
2018-05-10T08:55:35.232Z,46.00
2018-05-10T08:58:04.500Z,45.13
2018-05-10T09:00:34.632Z,41.93
2018-05-10T09:03:03.946Z,46.90
2018-05-10T09:05:33.958Z,44.03
2018-05-10T09:08:03.284Z,45.00
2018-05-10T09:10:32.574Z,44.73
2018-05-10T09:13:01.879Z,47.97
2018-05-10T09:15:31.155Z,57.03
2018-05-10T09:18:01.280Z,42.40
2018-05-10T09:20:30.599Z,43.30
2018-05-10T09:22:59.893Z,39.60
2018-05-10T09:25:29.194Z,40.40
2018-05-10T09:27:58.475Z,40.63
2018-05-10T09:30:28.540Z,45.87
2018-05-10T09:32:57.908Z,43.37
2018-05-10T09:35:28.685Z,45.27
2018-05-10T09:37:57.977Z,41.33
2018-05-10T09:40:27.248Z,46.77
2018-05-10T09:42:56.549Z,41.00
2018-05-10T09:45:25.859Z,42.03
2018-05-10T09:47:55.122Z,42.80
2018-05-10T09:50:25.215Z,40.37
2018-05-10T09:52:54.460Z,41.60
2018-05-10T09:55:24.957Z,42.13
2018-05-10T09:57:55.025Z,38.50
2018-05-10T10:00:30.317Z,36.23
2018-05-10T10:03:00.350Z,36.43
2018-05-10T10:05:30.405Z,36.47
2018-05-10T10:08:01.240Z,36.47
2018-05-10T10:10:31.127Z,32.30
2018-05-10T10:13:01.167Z,44.63
2018-05-10T10:15:30.422Z,30.60
2018-05-10T10:18:00.835Z,36.40
2018-05-10T10:20:30.177Z,39.40
2018-05-10T10:23:00.195Z,31.77
2018-05-10T10:25:30.302Z,34.23
2018-05-10T10:27:59.675Z,32.53
2018-05-10T10:30:28.954Z,35.37
2018-05-10T10:32:58.244Z,35.33
2018-05-10T10:35:27.530Z,33.10
2018-05-10T10:37:57.794Z,36.90
2018-05-10T10:40:27.058Z,36.57
2018-05-10T10:42:56.366Z,40.03
2018-05-10T10:45:25.752Z,42.20
2018-05-10T10:47:55.774Z,43.60
2018-05-10T10:50:29.317Z,36.13
2018-05-10T10:52:58.607Z,34.30
2018-05-10T10:55:27.939Z,29.30
2018-05-10T10:57:57.184Z,29.63
2018-05-10T11:00:27.381Z,32.07
2018-05-10T11:02:58.141Z,30.90
2018-05-10T11:05:27.412Z,35.57
2018-05-10T11:07:57.463Z,40.73
2018-05-10T11:10:26.717Z,37.60
2018-05-10T11:12:56.768Z,40.23
2018-05-10T11:15:26.043Z,34.87
2018-05-10T11:17:56.098Z,48.37
2018-05-10T11:20:25.389Z,37.03
2018-05-10T11:22:54.955Z,36.27
2018-05-10T11:25:24.971Z,42.50
2018-05-10T11:27:55.048Z,36.73
2018-05-10T11:30:24.410Z,35.70
2018-05-10T11:32:54.513Z,37.97
2018-05-10T11:35:24.569Z,33.47
2018-05-10T11:37:53.873Z,28.63
2018-05-10T11:40:23.169Z,28.73
2018-05-10T11:42:52.726Z,33.23
2018-05-10T11:45:22.769Z,37.50
2018-05-10T11:47:52.075Z,32.63
2018-05-10T11:50:21.387Z,39.37
2018-05-10T11:52:50.686Z,29.20
2018-05-10T11:55:19.940Z,23.37
2018-05-10T11:57:50.006Z,34.27
2018-05-10T12:00:19.265Z,24.03
2018-05-10T12:02:50.064Z,27.53
2018-05-10T12:05:19.313Z,24.00
2018-05-10T12:07:49.608Z,24.60
2018-05-10T12:10:18.896Z,27.47
2018-05-10T12:12:48.149Z,22.47
2018-05-10T12:15:17.440Z,20.93
2018-05-10T12:17:47.630Z,19.47
2018-05-10T12:20:16.919Z,20.17
2018-05-10T12:22:46.177Z,20.87
2018-05-10T12:25:15.468Z,17.00
2018-05-10T12:27:45.492Z,18.23
2018-05-10T12:30:14.799Z,19.80
2018-05-10T12:32:44.102Z,25.63
2018-05-10T12:35:13.366Z,21.97
2018-05-10T12:37:43.433Z,26.07
2018-05-10T12:40:12.832Z,38.83
2018-05-10T12:42:42.106Z,28.30
2018-05-10T12:45:12.999Z,26.93
2018-05-10T12:47:42.272Z,34.83
2018-05-10T12:50:11.562Z,33.23
2018-05-10T12:52:40.850Z,38.10
2018-05-10T12:55:10.146Z,35.47
2018-05-10T12:57:40.575Z,34.40
2018-05-10T13:00:10.601Z,41.83
2018-05-10T13:02:40.658Z,44.53
2018-05-10T13:05:10.024Z,40.03
2018-05-10T13:07:39.289Z,42.83
2018-05-10T13:10:09.329Z,46.23
2018-05-10T13:12:38.911Z,39.03
2018-05-10T13:15:08.166Z,40.27
2018-05-10T13:17:37.449Z,39.87
2018-05-10T13:20:06.723Z,50.10
2018-05-10T13:22:36.059Z,37.50
2018-05-10T13:25:05.346Z,34.57
2018-05-10T13:27:34.634Z,30.57
2018-05-10T13:30:03.965Z,32.00
2018-05-10T13:32:33.254Z,23.60
2018-05-10T13:35:03.291Z,18.23
2018-05-10T13:37:40.480Z,19.97
2018-05-10T13:40:09.685Z,22.53
2018-05-10T13:42:40.181Z,23.40
2018-05-10T13:45:09.459Z,19.27
2018-05-10T13:47:39.588Z,17.93
2018-05-10T13:50:08.790Z,23.13
2018-05-10T13:52:38.889Z,20.93
2018-05-10T13:55:08.927Z,21.17
2018-05-10T13:57:38.224Z,11.23
2018-05-10T14:00:08.279Z,17.50
2018-05-10T14:02:37.535Z,13.67
2018-05-10T14:05:07.557Z,14.30
2018-05-10T14:07:37.610Z,12.07
2018-05-10T14:10:06.895Z,16.47
2018-05-10T14:12:36.195Z,17.40
2018-05-10T14:15:05.497Z,18.80
2018-05-10T14:17:34.757Z,7.40
2018-05-10T14:20:04.808Z,10.70
2018-05-10T14:22:34.174Z,13.10
2018-05-10T14:25:03.436Z,12.00
2018-05-10T14:27:32.809Z,11.83
2018-05-10T14:30:02.819Z,9.60
2018-05-10T14:32:32.120Z,12.80
2018-05-10T14:35:01.437Z,12.23
2018-05-10T14:37:31.447Z,11.93
2018-05-10T14:40:00.731Z,13.93
2018-05-10T14:42:30.765Z,9.00
2018-05-10T14:45:00.051Z,20.10
2018-05-10T14:47:33.672Z,12.53
2018-05-10T14:50:03.677Z,8.33
2018-05-10T14:52:32.998Z,12.23
2018-05-10T14:55:02.276Z,6.90
2018-05-10T14:57:31.613Z,16.07
2018-05-10T15:00:00.873Z,16.77
2018-05-10T15:02:30.903Z,16.60
2018-05-10T15:05:00.218Z,10.00
2018-05-10T15:07:29.477Z,11.33
2018-05-10T15:09:59.546Z,18.43
2018-05-10T15:12:28.814Z,14.17
2018-05-10T15:14:58.897Z,13.90
2018-05-10T15:17:28.151Z,18.03
2018-05-10T15:19:57.431Z,20.17
2018-05-10T15:22:26.689Z,17.33
2018-05-10T15:24:55.981Z,16.93
2018-05-10T15:27:25.245Z,27.53
2018-05-10T15:29:54.513Z,14.90
2018-05-10T15:32:24.639Z,16.17
2018-05-10T15:34:53.882Z,15.33
2018-05-10T15:37:23.166Z,19.63
2018-05-10T15:39:52.443Z,21.60
2018-05-10T15:42:21.725Z,11.33
2018-05-10T15:44:51.797Z,13.07
2018-05-10T15:47:21.079Z,18.43
2018-05-10T15:49:50.353Z,14.40
2018-05-10T15:52:20.388Z,22.53
2018-05-10T15:54:50.410Z,17.80
2018-05-10T15:57:19.685Z,13.97
2018-05-10T15:59:50.544Z,17.93
2018-05-10T16:02:19.856Z,18.43
2018-05-10T16:04:49.185Z,15.80
2018-05-10T16:07:18.435Z,16.97
2018-05-10T16:09:47.710Z,14.23
2018-05-10T16:12:17.014Z,14.20
2018-05-10T16:14:47.054Z,11.90
2018-05-10T16:17:16.339Z,15.67
2018-05-10T16:19:46.391Z,19.70
2018-05-10T16:22:15.654Z,17.20
2018-05-10T16:24:46.453Z,27.60
2018-05-10T16:27:15.734Z,15.47
2018-05-10T16:29:45.013Z,14.23
2018-05-10T16:32:14.926Z,13.53
2018-05-10T16:34:44.199Z,16.67
2018-05-10T16:37:14.271Z,13.50
2018-05-10T16:39:47.660Z,18.57
2018-05-10T16:42:16.965Z,13.73
2018-05-10T16:44:47.064Z,20.73
2018-05-10T16:47:16.374Z,11.30
2018-05-10T16:49:45.682Z,18.43
2018-05-10T16:52:14.960Z,19.47
2018-05-10T16:54:45.005Z,16.77
2018-05-10T16:57:14.383Z,22.57
2018-05-10T16:59:44.547Z,19.93
2018-05-10T17:02:13.827Z,18.57
2018-05-10T17:04:43.214Z,13.07
2018-05-10T17:07:12.497Z,13.87
2018-05-10T17:09:41.903Z,17.40
2018-05-10T17:12:11.190Z,11.67
2018-05-10T17:14:41.217Z,17.50
2018-05-10T17:17:11.252Z,17.83
2018-05-10T17:19:40.510Z,21.30
2018-05-10T17:22:09.815Z,12.80
2018-05-10T17:24:39.857Z,20.50
2018-05-10T17:27:09.142Z,21.57
2018-05-10T17:29:39.191Z,15.27
2018-05-10T17:32:08.466Z,16.00
2018-05-10T17:34:37.813Z,22.20
2018-05-10T17:37:07.076Z,18.63
2018-05-10T17:39:36.419Z,24.57
2018-05-10T17:42:05.689Z,22.00
2018-05-10T17:44:34.981Z,21.03
2018-05-10T17:47:05.717Z,13.90
2018-05-10T17:49:35.018Z,11.57
2018-05-10T17:52:04.365Z,12.90
2018-05-10T17:54:33.649Z,21.23
2018-05-10T17:57:02.972Z,12.17
2018-05-10T17:59:32.247Z,15.60
2018-05-10T18:02:01.515Z,19.00
2018-05-10T18:04:30.826Z,16.30
2018-05-10T18:07:03.720Z,17.43
2018-05-10T18:09:33.006Z,13.33
2018-05-10T18:12:03.023Z,13.90
2018-05-10T18:14:33.054Z,10.73
2018-05-10T18:17:02.347Z,18.83
2018-05-10T18:19:33.284Z,24.90
2018-05-10T18:22:03.303Z,19.33
2018-05-10T18:24:33.337Z,15.83
2018-05-10T18:27:02.630Z,13.50
2018-05-10T18:29:31.980Z,20.60
2018-05-10T18:32:01.269Z,20.83
2018-05-10T18:34:30.555Z,24.23
2018-05-10T18:36:59.885Z,12.20
2018-05-10T18:39:29.149Z,11.90
2018-05-10T18:41:58.405Z,14.60
2018-05-10T18:44:28.476Z,34.17
2018-05-10T18:46:57.751Z,18.00
2018-05-10T18:49:27.028Z,18.77
2018-05-10T18:51:56.351Z,17.70
2018-05-10T18:54:25.640Z,14.53
2018-05-10T18:56:55.861Z,18.90
2018-05-10T18:59:25.150Z,13.63
2018-05-10T19:01:55.309Z,12.40
2018-05-10T19:04:24.578Z,15.80
2018-05-10T19:06:54.645Z,15.47
2018-05-10T19:09:23.941Z,22.20
2018-05-10T19:11:53.241Z,13.83
2018-05-10T19:14:23.217Z,25.03
2018-05-10T19:16:57.286Z,12.77
2018-05-10T19:19:26.579Z,9.23
2018-05-10T19:21:55.854Z,11.70
2018-05-10T19:24:25.153Z,12.53
2018-05-10T19:26:54.430Z,19.93
2018-05-10T19:29:23.715Z,17.10
2018-05-10T19:31:53.820Z,15.10
2018-05-10T19:34:24.374Z,9.77
2018-05-10T19:36:53.681Z,22.90
2018-05-10T19:39:22.998Z,21.30
2018-05-10T19:41:52.284Z,13.50
2018-05-10T19:44:21.639Z,15.40
2018-05-10T19:46:51.000Z,23.03
2018-05-10T19:49:20.339Z,22.20
2018-05-10T19:51:49.609Z,14.03
2018-05-10T19:54:18.899Z,14.73
2018-05-10T19:56:48.306Z,23.27
2018-05-10T19:59:17.817Z,14.77
2018-05-10T20:01:47.330Z,13.73
2018-05-10T20:04:16.682Z,24.33
2018-05-10T20:06:46.762Z,17.87
2018-05-10T20:09:16.135Z,16.20
2018-05-10T20:11:45.450Z,16.43
2018-05-10T20:14:14.731Z,19.40
2018-05-10T20:16:44.031Z,15.73
2018-05-10T20:19:13.352Z,26.10
2018-05-10T20:21:42.677Z,31.17
2018-05-10T20:24:12.007Z,17.47
2018-05-10T20:26:41.867Z,20.23
2018-05-10T20:29:11.162Z,13.60
2018-05-10T20:31:40.404Z,21.97
2018-05-10T20:34:09.696Z,30.13
2018-05-10T20:36:38.996Z,18.97
2018-05-10T20:39:08.294Z,17.57
2018-05-10T20:41:37.583Z,12.73
2018-05-10T20:44:06.874Z,16.73
2018-05-10T20:46:37.174Z,28.33
2018-05-10T20:49:06.589Z,21.43
2018-05-10T20:51:35.969Z,14.63
2018-05-10T20:54:05.271Z,20.63
2018-05-10T20:56:35.317Z,17.20
2018-05-10T20:59:04.588Z,21.93
2018-05-10T21:01:33.910Z,23.67
2018-05-10T21:04:03.186Z,19.20
2018-05-10T21:06:33.231Z,21.40
2018-05-10T21:09:03.052Z,14.57
2018-05-10T21:11:32.844Z,17.80
2018-05-10T21:14:02.979Z,18.63
2018-05-10T21:16:32.329Z,19.40
2018-05-10T21:19:01.519Z,27.03
2018-05-10T21:21:31.579Z,14.23
2018-05-10T21:24:00.839Z,14.60
2018-05-10T21:26:30.919Z,13.63
2018-05-10T21:29:00.899Z,18.13
2018-05-10T21:31:31.139Z,15.60
2018-05-10T21:34:00.490Z,13.43
2018-05-10T21:36:30.427Z,21.07
2018-05-10T21:39:00.506Z,22.60
2018-05-10T21:41:29.799Z,21.03
2018-05-10T21:43:59.064Z,15.60
2018-05-10T21:46:28.348Z,26.10
2018-05-10T21:48:58.448Z,21.40
2018-05-10T21:51:27.722Z,18.07
2018-05-10T21:53:57.078Z,13.27
2018-05-10T21:56:26.347Z,16.50
2018-05-10T21:58:55.865Z,14.77
2018-05-10T22:01:25.907Z,26.70
2018-05-10T22:03:55.227Z,15.93
2018-05-10T22:06:24.505Z,16.17
2018-05-10T22:08:54.645Z,16.87
2018-05-10T22:11:23.835Z,13.90
2018-05-10T22:13:54.737Z,15.73
2018-05-10T22:16:24.892Z,12.60
2018-05-10T22:18:54.152Z,11.33
2018-05-10T22:21:24.127Z,20.20
2018-05-10T22:23:53.429Z,13.50
2018-05-10T22:26:23.282Z,16.67
2018-05-10T22:28:53.367Z,13.07
2018-05-10T22:31:22.665Z,22.30
2018-05-10T22:33:51.923Z,13.80
2018-05-10T22:36:21.393Z,20.20
2018-05-10T22:38:50.675Z,13.80
2018-05-10T22:41:19.948Z,13.03
2018-05-10T22:43:49.507Z,13.17
2018-05-10T22:46:19.674Z,28.00
2018-05-10T22:48:49.201Z,22.53
2018-05-10T22:51:18.494Z,20.30
2018-05-10T22:53:47.802Z,23.87
2018-05-10T22:56:17.259Z,13.03
2018-05-10T22:58:46.535Z,24.83
2018-05-10T23:01:15.988Z,12.57
2018-05-10T23:03:45.275Z,21.10
2018-05-10T23:06:15.503Z,20.63
2018-05-10T23:08:44.707Z,14.60
2018-05-10T23:11:13.968Z,16.43
2018-05-10T23:13:44.027Z,15.40
2018-05-10T23:16:13.316Z,24.87
2018-05-10T23:18:42.575Z,18.33
2018-05-10T23:21:13.391Z,13.23
2018-05-10T23:23:42.674Z,12.37
2018-05-10T23:26:11.948Z,19.83
2018-05-10T23:28:41.200Z,14.57
2018-05-10T23:31:10.512Z,24.23
2018-05-10T23:33:39.792Z,24.03
2018-05-10T23:36:09.127Z,23.50
2018-05-10T23:38:39.178Z,20.20
2018-05-10T23:41:08.459Z,18.70
2018-05-10T23:43:38.512Z,11.33
2018-05-10T23:46:07.887Z,17.30
2018-05-10T23:48:37.125Z,17.20
2018-05-10T23:51:06.389Z,15.70
2018-05-10T23:53:35.650Z,19.93
2018-05-10T23:56:04.933Z,25.23
2018-05-10T23:58:34.346Z,18.03
